createdAt,value
2023-02-14T00:00:22.907Z,-2.62
2023-02-14T00:02:49.784Z,-2.59
2023-02-14T00:05:16.679Z,-2.60
2023-02-14T00:07:44.096Z,-2.60
2023-02-14T00:10:10.893Z,-2.63
2023-02-14T00:12:37.396Z,-2.62
2023-02-14T00:15:04.599Z,-2.71
2023-02-14T00:17:30.999Z,-2.66
2023-02-14T00:19:57.400Z,-2.65
2023-02-14T00:22:23.910Z,-2.63
2023-02-14T00:24:50.327Z,-2.69
2023-02-14T00:27:16.754Z,-2.72
2023-02-14T00:29:43.152Z,-2.77
2023-02-14T00:32:09.713Z,-2.85
2023-02-14T00:34:37.183Z,-2.91
2023-02-14T00:37:04.435Z,-2.95
2023-02-14T00:39:31.297Z,-3.01
2023-02-14T00:41:57.762Z,-2.98
2023-02-14T00:44:25.021Z,-3.01
2023-02-14T00:46:51.757Z,-3.09
2023-02-14T00:49:18.295Z,-3.10
2023-02-14T00:51:44.720Z,-3.12
2023-02-14T00:54:11.185Z,-3.13
2023-02-14T00:56:37.777Z,-3.12
2023-02-14T00:59:04.568Z,-3.10
2023-02-14T01:01:31.172Z,-3.10
2023-02-14T01:03:57.812Z,-3.06
2023-02-14T01:06:25.377Z,-3.13
2023-02-14T01:08:51.813Z,-3.17
2023-02-14T01:11:21.084Z,-3.17
2023-02-14T01:13:49.585Z,-3.19
2023-02-14T01:16:19.410Z,-3.19
2023-02-14T01:18:46.430Z,-3.21
2023-02-14T01:21:20.504Z,-3.14
2023-02-14T01:23:48.869Z,-3.19
2023-02-14T01:26:16.146Z,-3.22
2023-02-14T01:28:43.731Z,-3.21
2023-02-14T01:31:16.361Z,-3.19
2023-02-14T01:33:44.794Z,-3.15
2023-02-14T01:36:32.692Z,-3.15
2023-02-14T01:39:02.746Z,-3.16
2023-02-14T01:41:32.684Z,-3.19
2023-02-14T01:44:15.907Z,-3.29
2023-02-14T01:46:44.980Z,-3.28
2023-02-14T01:49:20.525Z,-3.29
2023-02-14T01:52:14.009Z,-3.33
2023-02-14T01:54:48.111Z,-3.36
2023-02-14T01:57:18.708Z,-3.36
2023-02-14T01:59:53.136Z,-3.37
2023-02-14T02:02:20.299Z,-3.36
2023-02-14T02:04:47.239Z,-3.32
2023-02-14T02:07:19.349Z,-3.32
2023-02-14T02:09:59.165Z,-3.37
2023-02-14T02:12:27.515Z,-3.42
2023-02-14T02:14:57.379Z,-3.47
2023-02-14T02:17:27.055Z,-3.50
2023-02-14T02:20:22.517Z,-3.46
2023-02-14T02:23:13.852Z,-3.44
2023-02-14T02:25:53.369Z,-3.47
2023-02-14T02:28:41.654Z,-3.52
2023-02-14T02:31:42.330Z,-3.54
2023-02-14T02:34:30.980Z,-3.60
2023-02-14T02:37:22.223Z,-3.64
2023-02-14T02:40:06.624Z,-3.60
2023-02-14T02:43:02.899Z,-3.60
2023-02-14T02:45:56.199Z,-3.62
2023-02-14T02:48:26.322Z,-3.56
2023-02-14T02:50:57.910Z,-3.57
2023-02-14T02:53:34.156Z,-3.61
2023-02-14T02:56:10.560Z,-3.64
2023-02-14T02:58:43.169Z,-3.66
2023-02-14T03:01:15.099Z,-3.67
2023-02-14T03:03:46.589Z,-3.64
2023-02-14T03:06:13.196Z,-3.64
2023-02-14T03:08:39.634Z,-3.64
2023-02-14T03:11:06.372Z,-3.64
2023-02-14T03:13:54.075Z,-3.68
2023-02-14T03:16:26.424Z,-3.64
2023-02-14T03:19:29.800Z,-3.59
2023-02-14T03:22:07.799Z,-3.64
2023-02-14T03:24:56.367Z,-3.68
2023-02-14T03:27:33.041Z,-3.70
2023-02-14T03:30:12.679Z,-3.69
2023-02-14T03:32:43.527Z,-3.70
2023-02-14T03:35:18.485Z,-3.71
2023-02-14T03:38:17.035Z,-3.69
2023-02-14T03:40:49.363Z,-3.74
2023-02-14T03:43:22.817Z,-3.76
2023-02-14T03:45:56.821Z,-3.78
2023-02-14T03:48:27.491Z,-3.78
2023-02-14T03:50:55.440Z,-3.77
2023-02-14T03:53:27.652Z,-3.75
2023-02-14T03:56:08.445Z,-3.75
2023-02-14T03:58:37.421Z,-3.71
2023-02-14T04:01:11.511Z,-3.72
2023-02-14T04:03:41.165Z,-3.72
2023-02-14T04:06:08.355Z,-3.70
2023-02-14T04:08:34.895Z,-3.74
2023-02-14T04:11:03.827Z,-3.79
2023-02-14T04:13:30.355Z,-3.86
2023-02-14T04:15:57.121Z,-3.86
2023-02-14T04:18:23.744Z,-3.87
2023-02-14T04:20:50.134Z,-3.89
2023-02-14T04:23:16.621Z,-3.84
2023-02-14T04:25:43.153Z,-3.88
2023-02-14T04:28:09.561Z,-3.87
2023-02-14T04:30:36.265Z,-3.89
2023-02-14T04:33:03.610Z,-3.88
2023-02-14T04:35:30.383Z,-3.91
2023-02-14T04:37:57.282Z,-3.88
2023-02-14T04:40:23.691Z,-3.92
2023-02-14T04:42:50.130Z,-3.96
2023-02-14T04:45:16.619Z,-3.90
2023-02-14T04:47:43.127Z,-3.90
2023-02-14T04:50:09.952Z,-3.93
2023-02-14T04:52:36.601Z,-3.89
2023-02-14T04:55:04.221Z,-3.87
2023-02-14T04:57:31.029Z,-3.92
2023-02-14T04:59:58.379Z,-3.90
2023-02-14T05:02:24.816Z,-3.89
2023-02-14T05:04:51.627Z,-3.87
2023-02-14T05:07:18.116Z,-3.98
2023-02-14T05:09:44.729Z,-4.04
2023-02-14T05:12:11.146Z,-4.07
2023-02-14T05:14:37.687Z,-4.06
2023-02-14T05:17:04.520Z,-4.07
2023-02-14T05:19:30.956Z,-4.14
2023-02-14T05:21:57.719Z,-4.13
2023-02-14T05:24:24.273Z,-4.17
2023-02-14T05:26:50.694Z,-4.18
2023-02-14T05:29:17.168Z,-4.21
2023-02-14T05:31:43.719Z,-4.23
2023-02-14T05:34:10.544Z,-4.18
2023-02-14T05:36:37.537Z,-4.19
2023-02-14T05:39:04.936Z,-4.21
2023-02-14T05:41:31.771Z,-4.19
2023-02-14T05:43:58.262Z,-4.22
2023-02-14T05:46:25.001Z,-4.22
2023-02-14T05:48:51.790Z,-4.22
2023-02-14T05:51:18.266Z,-4.24
2023-02-14T05:53:45.102Z,-4.24
2023-02-14T05:56:11.754Z,-4.21
2023-02-14T05:58:38.364Z,-4.21
2023-02-14T06:01:05.072Z,-4.19
2023-02-14T06:03:31.516Z,-4.20
2023-02-14T06:05:58.162Z,-4.24
2023-02-14T06:08:24.825Z,-4.26
2023-02-14T06:10:51.496Z,-4.27
2023-02-14T06:13:20.027Z,-4.25
2023-02-14T06:15:46.611Z,-4.27
2023-02-14T06:18:13.186Z,-4.27
2023-02-14T06:20:39.761Z,-4.27
2023-02-14T06:23:06.163Z,-4.27
2023-02-14T06:25:32.845Z,-4.27
2023-02-14T06:27:59.793Z,-4.28
2023-02-14T06:30:27.065Z,-4.27
2023-02-14T06:32:54.047Z,-4.25
2023-02-14T06:35:20.453Z,-4.21
2023-02-14T06:37:47.599Z,-4.17
2023-02-14T06:40:14.474Z,-4.22
2023-02-14T06:42:41.085Z,-4.24
2023-02-14T06:45:08.158Z,-4.25
2023-02-14T06:47:35.208Z,-4.21
2023-02-14T06:50:02.212Z,-4.16
2023-02-14T06:52:28.842Z,-4.13
2023-02-14T06:54:55.318Z,-4.10
2023-02-14T06:57:21.822Z,-4.08
2023-02-14T06:59:48.478Z,-4.01
2023-02-14T07:02:15.017Z,-3.99
2023-02-14T07:04:43.578Z,-3.98
2023-02-14T07:07:10.066Z,-3.93
2023-02-14T07:09:40.528Z,-3.88
2023-02-14T07:12:08.016Z,-3.84
2023-02-14T07:14:34.473Z,-3.74
2023-02-14T07:17:01.173Z,-3.67
2023-02-14T07:19:27.704Z,-3.66
2023-02-14T07:21:54.188Z,-3.51
2023-02-14T07:24:21.189Z,-3.42
2023-02-14T07:26:47.624Z,-3.36
2023-02-14T07:29:14.121Z,-3.21
2023-02-14T07:31:40.781Z,-3.19
2023-02-14T07:34:08.617Z,-3.17
2023-02-14T07:36:37.790Z,-3.03
2023-02-14T07:39:04.797Z,-2.88
2023-02-14T07:41:31.282Z,-2.92
2023-02-14T07:43:57.914Z,-2.89
2023-02-14T07:46:24.574Z,-2.70
2023-02-14T07:48:51.009Z,-2.64
2023-02-14T07:51:17.996Z,-2.63
2023-02-14T07:53:45.804Z,-2.46
2023-02-14T07:56:12.177Z,-2.32
2023-02-14T07:58:38.707Z,-2.21
2023-02-14T08:01:05.302Z,-2.06
2023-02-14T08:03:32.210Z,-1.88
2023-02-14T08:05:58.586Z,-1.87
2023-02-14T08:08:27.163Z,-1.87
2023-02-14T08:10:53.999Z,-1.79
2023-02-14T08:13:20.702Z,-1.68
2023-02-14T08:15:47.212Z,-1.44
2023-02-14T08:18:14.113Z,-1.39
2023-02-14T08:20:40.887Z,-1.08
2023-02-14T08:23:07.806Z,-1.14
2023-02-14T08:25:34.792Z,-0.98
2023-02-14T08:28:03.440Z,-0.75
2023-02-14T08:30:30.809Z,-0.49
2023-02-14T08:32:57.458Z,-0.53
2023-02-14T08:35:26.014Z,-0.38
2023-02-14T08:37:52.836Z,-0.63
2023-02-14T08:40:19.553Z,-0.50
2023-02-14T08:42:46.186Z,-0.21
2023-02-14T08:45:12.547Z,0.05
2023-02-14T08:47:40.360Z,0.12
2023-02-14T08:50:11.797Z,0.38
2023-02-14T08:52:42.622Z,0.57
2023-02-14T08:55:10.122Z,0.72
2023-02-14T08:57:36.675Z,0.89
2023-02-14T09:00:04.822Z,1.04
2023-02-14T09:02:31.429Z,1.01
2023-02-14T09:04:59.089Z,1.34
2023-02-14T09:07:25.539Z,1.77
2023-02-14T09:09:52.077Z,1.67
2023-02-14T09:12:18.688Z,1.89
2023-02-14T09:14:45.267Z,1.58
2023-02-14T09:17:16.669Z,1.92
2023-02-14T09:19:46.048Z,2.39
2023-02-14T09:22:12.687Z,3.05
2023-02-14T09:24:40.138Z,2.88
2023-02-14T09:27:07.662Z,3.26
2023-02-14T09:29:34.621Z,3.18
2023-02-14T09:32:02.128Z,3.16
2023-02-14T09:34:29.841Z,3.38
2023-02-14T09:36:56.499Z,3.11
2023-02-14T09:39:23.036Z,3.40
2023-02-14T09:42:02.712Z,3.36
2023-02-14T09:44:51.263Z,3.88
2023-02-14T09:47:20.518Z,4.23
2023-02-14T09:49:48.947Z,4.07
2023-02-14T09:52:19.866Z,4.26
2023-02-14T09:54:56.145Z,4.19
2023-02-14T09:57:22.558Z,4.45
2023-02-14T10:00:03.936Z,4.26
2023-02-14T10:02:57.597Z,5.04
2023-02-14T10:05:29.093Z,5.18
2023-02-14T10:08:08.062Z,5.40
2023-02-14T10:10:42.726Z,5.67
2023-02-14T10:13:33.587Z,5.54
2023-02-14T10:16:09.640Z,5.89
2023-02-14T10:19:07.639Z,5.24
2023-02-14T10:21:40.318Z,5.92
2023-02-14T10:24:19.755Z,5.12
2023-02-14T10:26:49.573Z,5.38
2023-02-14T10:29:18.403Z,5.76
2023-02-14T10:31:51.816Z,5.97
2023-02-14T10:34:38.205Z,5.53
2023-02-14T10:37:30.116Z,5.38
2023-02-14T10:39:56.517Z,6.18
2023-02-14T10:42:34.820Z,6.42
2023-02-14T10:45:13.174Z,7.01
2023-02-14T10:47:45.623Z,6.42
2023-02-14T10:50:32.068Z,6.85
2023-02-14T10:53:16.131Z,7.45
2023-02-14T10:56:14.803Z,7.44
2023-02-14T10:58:43.440Z,7.49
2023-02-14T11:01:15.616Z,7.79
2023-02-14T11:03:52.582Z,7.81
2023-02-14T11:06:19.397Z,8.05
2023-02-14T11:08:46.111Z,8.10
2023-02-14T11:11:27.088Z,8.24
2023-02-14T11:13:53.682Z,8.43
2023-02-14T11:16:34.819Z,7.70
2023-02-14T11:19:21.409Z,7.95
2023-02-14T11:21:49.641Z,8.22
2023-02-14T11:24:40.209Z,8.63
2023-02-14T11:27:18.031Z,8.81
2023-02-14T11:29:47.374Z,8.33
2023-02-14T11:32:23.270Z,8.93
2023-02-14T11:34:56.225Z,8.82
2023-02-14T11:37:22.705Z,9.21
2023-02-14T11:39:50.734Z,9.55
2023-02-14T11:42:46.551Z,9.76
2023-02-14T11:45:28.103Z,9.50
2023-02-14T11:48:17.785Z,9.89
2023-02-14T11:51:09.495Z,10.08
2023-02-14T11:53:45.745Z,9.96
2023-02-14T11:56:14.240Z,9.76
2023-02-14T11:58:49.151Z,10.14
2023-02-14T12:01:29.853Z,9.90
2023-02-14T12:04:01.709Z,10.25
2023-02-14T12:06:31.900Z,10.09
2023-02-14T12:09:23.367Z,10.41
2023-02-14T12:12:02.197Z,9.93
2023-02-14T12:14:31.776Z,10.11
2023-02-14T12:17:13.609Z,10.61
2023-02-14T12:19:52.149Z,10.21
2023-02-14T12:22:41.940Z,10.52
2023-02-14T12:25:25.147Z,10.95
2023-02-14T12:28:00.574Z,11.22
2023-02-14T12:30:32.199Z,11.44
2023-02-14T12:32:58.999Z,11.83
2023-02-14T12:35:51.530Z,10.83
2023-02-14T12:38:27.536Z,10.53
2023-02-14T12:41:10.676Z,10.63
2023-02-14T12:43:46.064Z,10.94
2023-02-14T12:49:08.753Z,11.86
2023-02-14T12:51:42.138Z,11.90
2023-02-14T12:54:21.208Z,11.59
2023-02-14T12:57:05.311Z,11.68
2023-02-14T12:59:53.067Z,12.05
2023-02-14T13:02:44.432Z,11.79
2023-02-14T13:05:34.377Z,11.71
2023-02-14T13:08:06.872Z,11.80
2023-02-14T13:10:52.168Z,11.96
2023-02-14T13:13:42.476Z,11.97
2023-02-14T13:16:21.374Z,11.85
2023-02-14T13:18:57.622Z,11.36
2023-02-14T13:21:27.703Z,11.70
2023-02-14T13:24:06.213Z,11.70
2023-02-14T13:26:37.946Z,11.73
2023-02-14T13:29:13.814Z,12.04
2023-02-14T13:31:41.906Z,12.17
2023-02-14T13:34:19.763Z,12.48
2023-02-14T13:36:47.019Z,12.45
2023-02-14T13:39:23.993Z,11.90
2023-02-14T13:41:50.542Z,12.33
2023-02-14T13:44:39.068Z,12.44
2023-02-14T13:47:07.622Z,12.11
2023-02-14T13:49:38.035Z,12.36
2023-02-14T13:52:06.006Z,12.10
2023-02-14T13:55:02.445Z,12.22
2023-02-14T13:57:32.630Z,12.05
2023-02-14T14:00:17.264Z,12.09
2023-02-14T14:02:47.548Z,12.10
2023-02-14T14:05:32.543Z,12.10
2023-02-14T14:08:22.077Z,12.34
2023-02-14T14:10:51.918Z,12.36
2023-02-14T14:13:40.414Z,12.47
2023-02-14T14:16:25.178Z,12.01
2023-02-14T14:18:53.340Z,11.90
2023-02-14T14:21:29.160Z,12.08
2023-02-14T14:24:21.260Z,12.06
2023-02-14T14:26:53.140Z,11.79
2023-02-14T14:29:28.538Z,11.67
2023-02-14T14:31:55.092Z,11.82
2023-02-14T14:34:25.321Z,11.73
2023-02-14T14:37:16.959Z,11.69
2023-02-14T14:40:08.396Z,11.68
2023-02-14T14:42:43.731Z,11.61
2023-02-14T14:45:22.907Z,11.59
2023-02-14T14:47:54.123Z,11.54
2023-02-14T14:50:27.132Z,11.72
2023-02-14T14:52:57.494Z,11.77
2023-02-14T14:55:29.736Z,11.70
2023-02-14T14:58:00.450Z,11.72
2023-02-14T15:00:31.105Z,11.83
2023-02-14T15:02:59.486Z,11.48
2023-02-14T15:05:42.670Z,11.51
2023-02-14T15:08:24.644Z,11.50
2023-02-14T15:11:02.848Z,11.39
2023-02-14T15:13:41.714Z,11.29
2023-02-14T15:16:08.428Z,11.03
2023-02-14T15:18:35.031Z,10.92
2023-02-14T15:21:09.156Z,10.83
2023-02-14T15:23:35.636Z,10.67
2023-02-14T15:26:02.271Z,10.53
2023-02-14T15:28:34.171Z,10.38
2023-02-14T15:31:04.337Z,10.21
2023-02-14T15:33:33.198Z,10.08
2023-02-14T15:36:04.326Z,9.99
2023-02-14T15:38:33.491Z,9.88
2023-02-14T15:41:00.692Z,9.75
2023-02-14T15:43:33.698Z,9.68
2023-02-14T15:46:16.850Z,9.59
2023-02-14T15:48:45.946Z,9.51
2023-02-14T15:51:20.872Z,9.41
2023-02-14T15:53:53.947Z,9.30
2023-02-14T15:56:24.192Z,9.32
2023-02-14T15:59:00.668Z,9.12
2023-02-14T16:01:28.094Z,8.92
2023-02-14T16:03:58.719Z,8.89
2023-02-14T16:06:34.117Z,8.72
2023-02-14T16:09:00.997Z,8.61
2023-02-14T16:11:32.362Z,8.50
2023-02-14T16:13:59.075Z,8.34
2023-02-14T16:16:25.497Z,8.23
2023-02-14T16:18:54.146Z,8.20
2023-02-14T16:21:29.297Z,8.07
2023-02-14T16:24:07.735Z,8.03
2023-02-14T16:26:36.370Z,8.00
2023-02-14T16:29:04.369Z,8.04
2023-02-14T16:31:32.231Z,7.89
2023-02-14T16:33:58.870Z,7.76
2023-02-14T16:36:30.308Z,7.59
2023-02-14T16:38:57.586Z,7.48
2023-02-14T16:41:26.582Z,7.36
2023-02-14T16:43:54.405Z,7.26
2023-02-14T16:46:29.082Z,7.15
2023-02-14T16:48:56.090Z,7.02
2023-02-14T16:51:25.701Z,6.88
2023-02-14T16:53:52.881Z,6.83
2023-02-14T16:56:23.830Z,6.70
2023-02-14T16:58:50.162Z,6.52
2023-02-14T17:01:16.774Z,6.41
2023-02-14T17:03:43.337Z,6.27
2023-02-14T17:06:13.215Z,6.25
2023-02-14T17:08:41.518Z,6.27
2023-02-14T17:11:09.808Z,6.24
2023-02-14T17:13:41.374Z,6.12
2023-02-14T17:16:09.775Z,5.99
2023-02-14T17:18:36.642Z,5.88
2023-02-14T17:21:04.166Z,5.74
2023-02-14T17:23:31.151Z,5.66
2023-02-14T17:25:57.575Z,5.57
2023-02-14T17:28:24.294Z,5.48
2023-02-14T17:30:50.958Z,5.38
2023-02-14T17:33:17.753Z,5.25
2023-02-14T17:35:46.276Z,5.17
2023-02-14T17:38:12.852Z,5.11
2023-02-14T17:40:39.321Z,5.10
2023-02-14T17:43:05.834Z,4.99
2023-02-14T17:45:32.480Z,4.89
2023-02-14T17:47:58.965Z,4.87
2023-02-14T17:50:25.397Z,4.80
2023-02-14T17:52:56.001Z,4.67
2023-02-14T17:55:35.635Z,4.56
2023-02-14T17:58:02.070Z,4.46
2023-02-14T18:00:29.524Z,4.36
2023-02-14T18:02:56.208Z,4.26
2023-02-14T18:05:25.222Z,4.19
2023-02-14T18:07:53.978Z,4.10
2023-02-14T18:10:20.829Z,4.02
2023-02-14T18:12:47.245Z,3.93
2023-02-14T18:15:14.064Z,3.90
2023-02-14T18:17:40.917Z,3.83
2023-02-14T18:20:10.649Z,3.78
2023-02-14T18:22:37.126Z,3.73
2023-02-14T18:25:03.841Z,3.68
2023-02-14T18:27:31.366Z,3.60
2023-02-14T18:30:00.614Z,3.52
2023-02-14T18:32:27.194Z,3.48
2023-02-14T18:34:54.025Z,3.41
2023-02-14T18:37:20.454Z,3.34
2023-02-14T18:39:47.024Z,3.27
2023-02-14T18:42:14.287Z,3.20
2023-02-14T18:44:40.915Z,3.15
2023-02-14T18:47:07.489Z,3.10
2023-02-14T18:49:34.007Z,3.08
2023-02-14T18:52:00.664Z,2.98
2023-02-14T18:54:27.224Z,2.88
2023-02-14T18:56:53.682Z,2.84
2023-02-14T18:59:20.301Z,2.81
2023-02-14T19:01:46.674Z,2.73
2023-02-14T19:04:16.476Z,2.68
2023-02-14T19:06:42.983Z,2.68
2023-02-14T19:09:12.641Z,2.67
2023-02-14T19:11:39.582Z,2.60
2023-02-14T19:14:06.560Z,2.52
2023-02-14T19:16:34.985Z,2.51
2023-02-14T19:19:01.556Z,2.51
2023-02-14T19:21:33.217Z,2.48
2023-02-14T19:24:00.853Z,2.41
2023-02-14T19:26:30.248Z,2.38
2023-02-14T19:28:59.110Z,2.31
2023-02-14T19:31:26.466Z,2.27
2023-02-14T19:33:53.844Z,2.18
2023-02-14T19:36:22.068Z,2.08
2023-02-14T19:38:51.814Z,2.03
2023-02-14T19:41:30.707Z,2.01
2023-02-14T19:44:01.312Z,1.97
2023-02-14T19:46:29.575Z,1.98
2023-02-14T19:48:57.503Z,1.94
2023-02-14T19:51:29.808Z,1.90
2023-02-14T19:53:57.665Z,1.87
2023-02-14T19:56:34.203Z,1.84
2023-02-14T19:59:00.746Z,1.76
2023-02-14T20:01:31.613Z,1.73
2023-02-14T20:03:57.967Z,1.72
2023-02-14T20:06:25.940Z,1.67
2023-02-14T20:08:53.220Z,1.64
2023-02-14T20:11:39.112Z,1.57
2023-02-14T20:14:12.477Z,1.54
2023-02-14T20:16:40.137Z,1.54
2023-02-14T20:19:09.629Z,1.51
2023-02-14T20:21:37.880Z,1.48
2023-02-14T20:24:10.618Z,1.46
2023-02-14T20:26:41.012Z,1.42
2023-02-14T20:29:10.110Z,1.36
2023-02-14T20:31:47.456Z,1.35
2023-02-14T20:34:15.340Z,1.32
2023-02-14T20:36:46.691Z,1.23
2023-02-14T20:39:17.524Z,1.12
2023-02-14T20:41:50.709Z,1.01
2023-02-14T20:44:23.058Z,0.97
2023-02-14T20:46:53.263Z,0.99
2023-02-14T20:49:25.379Z,0.98
2023-02-14T20:51:56.901Z,0.96
2023-02-14T20:54:27.784Z,0.97
2023-02-14T20:57:03.919Z,0.94
2023-02-14T20:59:33.436Z,0.93
2023-02-14T21:02:01.240Z,0.86
2023-02-14T21:04:30.448Z,0.76
2023-02-14T21:06:56.913Z,0.76
2023-02-14T21:09:23.786Z,0.76
2023-02-14T21:11:50.583Z,0.71
2023-02-14T21:14:18.104Z,0.70
2023-02-14T21:16:47.108Z,0.64
2023-02-14T21:19:14.648Z,0.61
2023-02-14T21:21:42.862Z,0.55
2023-02-14T21:24:13.862Z,0.45
2023-02-14T21:26:41.187Z,0.40
2023-02-14T21:29:08.855Z,0.32
2023-02-14T21:31:37.299Z,0.33
2023-02-14T21:34:04.126Z,0.28
2023-02-14T21:36:33.402Z,0.23
2023-02-14T21:39:00.942Z,0.17
2023-02-14T21:41:29.331Z,0.14
2023-02-14T21:43:57.412Z,0.11
2023-02-14T21:46:26.756Z,0.07
2023-02-14T21:48:54.574Z,0.01
2023-02-14T21:51:21.850Z,-0.03
2023-02-14T21:53:49.187Z,-0.06
2023-02-14T21:56:18.049Z,-0.06
2023-02-14T21:58:44.677Z,-0.11
2023-02-14T22:01:23.143Z,-0.10
2023-02-14T22:03:53.156Z,-0.16
2023-02-14T22:06:20.558Z,-0.21
2023-02-14T22:08:53.150Z,-0.21
2023-02-14T22:11:20.244Z,-0.25
2023-02-14T22:13:47.784Z,-0.30
2023-02-14T22:16:17.130Z,-0.31
2023-02-14T22:18:44.183Z,-0.33
2023-02-14T22:21:12.976Z,-0.39
2023-02-14T22:23:41.049Z,-0.43
2023-02-14T22:26:19.677Z,-0.49
2023-02-14T22:28:48.137Z,-0.47
2023-02-14T22:31:16.770Z,-0.48
2023-02-14T22:33:43.920Z,-0.52
2023-02-14T22:36:11.033Z,-0.54
2023-02-14T22:38:38.215Z,-0.53
2023-02-14T22:41:10.419Z,-0.54
2023-02-14T22:43:37.392Z,-0.58
2023-02-14T22:46:06.781Z,-0.57
2023-02-14T22:48:41.462Z,-0.65
2023-02-14T22:51:26.129Z,-0.71
2023-02-14T22:53:55.571Z,-0.71
2023-02-14T22:56:28.038Z,-0.72
2023-02-14T22:59:00.161Z,-0.75
2023-02-14T23:01:27.459Z,-0.68
2023-02-14T23:03:56.330Z,-0.72
2023-02-14T23:06:28.778Z,-0.83
2023-02-14T23:08:56.334Z,-0.87
2023-02-14T23:11:29.128Z,-0.92
2023-02-14T23:13:55.987Z,-0.97
2023-02-14T23:16:23.349Z,-0.98
2023-02-14T23:18:50.104Z,-1.04
2023-02-14T23:21:17.677Z,-1.11
2023-02-14T23:23:44.341Z,-1.14
2023-02-14T23:26:11.167Z,-1.17
2023-02-14T23:28:40.575Z,-1.20
2023-02-14T23:31:07.137Z,-1.27
2023-02-14T23:33:34.002Z,-1.32
2023-02-14T23:36:04.043Z,-1.34
2023-02-14T23:38:36.526Z,-1.33
2023-02-14T23:41:10.147Z,-1.43
2023-02-14T23:43:36.589Z,-1.45
2023-02-14T23:46:03.472Z,-1.49
2023-02-14T23:48:30.446Z,-1.56
2023-02-14T23:50:59.675Z,-1.56
2023-02-14T23:53:26.081Z,-1.59
2023-02-14T23:55:53.615Z,-1.65
2023-02-14T23:58:20.067Z,-1.70
